International Virtual Aviation Organisation

Russian Federation and Kazakhstan MCD

 
UARR 051900Z 02003MPS CAVOK M00/M02 Q1015 R22/CLRD70 NOSIG RMK QFE758/1011
QNH:(hPa/inHg/mmHg)1015 / 29.97 / 761
QFE:(hPa/inHg/mmHg)1010 / 29.83 / 758
Temperature-0
Dew Point-2
Visibility> 10000
WeatherCAVOK
Cloud Cover
Transition Height1770 m./6000 ft.
Transition LevelFL70
SQUAWK